sensor_id;sensor_type;location;lat;lon;timestamp;P1;durP1;ratioP1;P2;durP2;ratioP2
35699;SDS011;21818;51.078;12.108;2022-12-17T00:01:54;4.57;;;2.85;;
35699;SDS011;21818;51.078;12.108;2022-12-17T00:04:38;3.20;;;2.25;;
35699;SDS011;21818;51.078;12.108;2022-12-17T00:07:22;4.68;;;2.42;;
35699;SDS011;21818;51.078;12.108;2022-12-17T00:10:06;6.13;;;3.30;;
35699;SDS011;21818;51.078;12.108;2022-12-17T00:12:51;4.35;;;2.80;;
35699;SDS011;21818;51.078;12.108;2022-12-17T00:15:35;5.75;;;3.33;;
35699;SDS011;21818;51.078;12.108;2022-12-17T00:18:20;8.80;;;4.85;;
35699;SDS011;21818;51.078;12.108;2022-12-17T00:21:04;5.90;;;3.33;;
35699;SDS011;21818;51.078;12.108;2022-12-17T00:23:48;8.98;;;4.32;;
35699;SDS011;21818;51.078;12.108;2022-12-17T00:26:32;5.15;;;1.90;;
35699;SDS011;21818;51.078;12.108;2022-12-17T00:29:17;4.85;;;2.88;;
35699;SDS011;21818;51.078;12.108;2022-12-17T00:32:01;3.92;;;2.72;;
35699;SDS011;21818;51.078;12.108;2022-12-17T00:34:46;6.68;;;2.75;;
35699;SDS011;21818;51.078;12.108;2022-12-17T00:37:30;4.18;;;2.10;;
35699;SDS011;21818;51.078;12.108;2022-12-17T00:40:14;5.53;;;2.80;;
35699;SDS011;21818;51.078;12.108;2022-12-17T00:43:05;4.40;;;2.42;;
35699;SDS011;21818;51.078;12.108;2022-12-17T00:45:51;4.38;;;2.55;;
35699;SDS011;21818;51.078;12.108;2022-12-17T00:48:35;4.25;;;3.00;;
35699;SDS011;21818;51.078;12.108;2022-12-17T00:51:19;3.72;;;2.63;;
35699;SDS011;21818;51.078;12.108;2022-12-17T00:54:04;4.28;;;2.45;;
35699;SDS011;21818;51.078;12.108;2022-12-17T00:56:48;4.15;;;2.67;;
35699;SDS011;21818;51.078;12.108;2022-12-17T00:59:32;6.32;;;3.40;;
35699;SDS011;21818;51.078;12.108;2022-12-17T01:02:16;5.82;;;2.78;;
35699;SDS011;21818;51.078;12.108;2022-12-17T01:05:01;4.32;;;2.95;;
35699;SDS011;21818;51.078;12.108;2022-12-17T01:08:06;6.13;;;2.78;;
35699;SDS011;21818;51.078;12.108;2022-12-17T01:10:58;3.70;;;2.20;;
35699;SDS011;21818;51.078;12.108;2022-12-17T01:13:43;3.55;;;2.20;;
35699;SDS011;21818;51.078;12.108;2022-12-17T01:16:27;2.88;;;1.77;;
35699;SDS011;21818;51.078;12.108;2022-12-17T01:19:11;5.13;;;2.60;;
35699;SDS011;21818;51.078;12.108;2022-12-17T01:21:55;3.95;;;2.47;;
35699;SDS011;21818;51.078;12.108;2022-12-17T01:24:39;2.63;;;1.80;;
35699;SDS011;21818;51.078;12.108;2022-12-17T01:27:23;5.43;;;2.45;;
35699;SDS011;21818;51.078;12.108;2022-12-17T01:30:07;4.78;;;2.35;;
35699;SDS011;21818;51.078;12.108;2022-12-17T01:32:51;6.78;;;2.67;;
35699;SDS011;21818;51.078;12.108;2022-12-17T01:35:35;3.92;;;2.30;;
35699;SDS011;21818;51.078;12.108;2022-12-17T01:38:19;3.92;;;2.25;;
35699;SDS011;21818;51.078;12.108;2022-12-17T01:41:03;4.38;;;2.17;;
35699;SDS011;21818;51.078;12.108;2022-12-17T01:43:48;3.60;;;2.25;;
35699;SDS011;21818;51.078;12.108;2022-12-17T01:46:34;4.57;;;2.40;;
35699;SDS011;21818;51.078;12.108;2022-12-17T01:49:20;6.20;;;2.50;;
35699;SDS011;21818;51.078;12.108;2022-12-17T01:52:06;3.15;;;2.00;;
35699;SDS011;21818;51.078;12.108;2022-12-17T01:54:52;2.70;;;1.85;;
35699;SDS011;21818;51.078;12.108;2022-12-17T01:57:36;3.75;;;2.28;;
35699;SDS011;21818;51.078;12.108;2022-12-17T02:00:21;3.80;;;2.25;;
35699;SDS011;21818;51.078;12.108;2022-12-17T02:03:13;3.05;;;1.88;;
35699;SDS011;21818;51.078;12.108;2022-12-17T02:06:02;3.38;;;2.13;;
35699;SDS011;21818;51.078;12.108;2022-12-17T02:08:55;2.97;;;1.98;;
35699;SDS011;21818;51.078;12.108;2022-12-17T02:11:46;2.30;;;1.70;;
35699;SDS011;21818;51.078;12.108;2022-12-17T02:14:52;4.90;;;2.38;;
35699;SDS011;21818;51.078;12.108;2022-12-17T02:17:54;4.15;;;1.83;;
35699;SDS011;21818;51.078;12.108;2022-12-17T02:20:44;4.43;;;1.88;;
35699;SDS011;21818;51.078;12.108;2022-12-17T02:26:26;4.65;;;2.90;;
35699;SDS011;21818;51.078;12.108;2022-12-17T02:29:20;5.75;;;2.72;;
35699;SDS011;21818;51.078;12.108;2022-12-17T02:32:06;4.88;;;2.45;;
35699;SDS011;21818;51.078;12.108;2022-12-17T02:34:53;2.40;;;1.70;;
35699;SDS011;21818;51.078;12.108;2022-12-17T02:37:37;3.45;;;2.20;;
35699;SDS011;21818;51.078;12.108;2022-12-17T02:40:21;4.40;;;2.67;;
35699;SDS011;21818;51.078;12.108;2022-12-17T02:43:07;4.43;;;2.40;;
35699;SDS011;21818;51.078;12.108;2022-12-17T02:45:53;3.08;;;1.70;;
35699;SDS011;21818;51.078;12.108;2022-12-17T02:48:38;4.63;;;2.70;;
35699;SDS011;21818;51.078;12.108;2022-12-17T02:51:22;2.75;;;1.80;;
35699;SDS011;21818;51.078;12.108;2022-12-17T02:54:08;3.38;;;1.80;;
35699;SDS011;21818;51.078;12.108;2022-12-17T02:56:52;5.43;;;2.60;;
35699;SDS011;21818;51.078;12.108;2022-12-17T02:59:37;4.72;;;2.70;;
35699;SDS011;21818;51.078;12.108;2022-12-17T03:02:21;7.45;;;3.70;;
35699;SDS011;21818;51.078;12.108;2022-12-17T03:05:05;4.93;;;2.60;;
35699;SDS011;21818;51.078;12.108;2022-12-17T03:07:49;4.35;;;2.35;;
35699;SDS011;21818;51.078;12.108;2022-12-17T03:10:33;5.30;;;3.08;;
35699;SDS011;21818;51.078;12.108;2022-12-17T03:13:27;6.10;;;3.20;;
35699;SDS011;21818;51.078;12.108;2022-12-17T03:16:13;5.65;;;2.60;;
35699;SDS011;21818;51.078;12.108;2022-12-17T03:18:58;4.15;;;2.05;;
35699;SDS011;21818;51.078;12.108;2022-12-17T03:21:42;5.32;;;3.20;;
35699;SDS011;21818;51.078;12.108;2022-12-17T03:24:27;6.28;;;3.50;;
35699;SDS011;21818;51.078;12.108;2022-12-17T03:27:11;5.22;;;3.33;;
35699;SDS011;21818;51.078;12.108;2022-12-17T03:29:56;5.25;;;3.40;;
35699;SDS011;21818;51.078;12.108;2022-12-17T03:32:40;6.78;;;4.20;;
35699;SDS011;21818;51.078;12.108;2022-12-17T03:35:24;6.43;;;3.55;;
35699;SDS011;21818;51.078;12.108;2022-12-17T03:38:08;4.05;;;2.72;;
35699;SDS011;21818;51.078;12.108;2022-12-17T03:40:53;4.78;;;2.33;;
35699;SDS011;21818;51.078;12.108;2022-12-17T03:43:37;5.95;;;3.10;;
35699;SDS011;21818;51.078;12.108;2022-12-17T03:46:22;5.85;;;3.38;;
35699;SDS011;21818;51.078;12.108;2022-12-17T03:49:06;6.70;;;3.58;;
35699;SDS011;21818;51.078;12.108;2022-12-17T03:51:50;7.32;;;4.03;;
35699;SDS011;21818;51.078;12.108;2022-12-17T03:54:34;5.38;;;3.63;;
35699;SDS011;21818;51.078;12.108;2022-12-17T03:57:18;3.38;;;2.00;;
35699;SDS011;21818;51.078;12.108;2022-12-17T04:00:03;4.95;;;2.53;;
35699;SDS011;21818;51.078;12.108;2022-12-17T04:02:48;5.22;;;2.53;;
35699;SDS011;21818;51.078;12.108;2022-12-17T04:05:32;3.72;;;2.30;;
35699;SDS011;21818;51.078;12.108;2022-12-17T04:08:16;3.20;;;2.15;;
35699;SDS011;21818;51.078;12.108;2022-12-17T04:11:00;4.15;;;2.42;;
35699;SDS011;21818;51.078;12.108;2022-12-17T04:13:44;4.13;;;2.53;;
35699;SDS011;21818;51.078;12.108;2022-12-17T04:16:28;6.20;;;3.42;;
35699;SDS011;21818;51.078;12.108;2022-12-17T04:19:12;6.85;;;3.75;;
35699;SDS011;21818;51.078;12.108;2022-12-17T04:21:56;5.78;;;3.15;;
35699;SDS011;21818;51.078;12.108;2022-12-17T04:24:40;7.18;;;3.90;;
35699;SDS011;21818;51.078;12.108;2022-12-17T04:27:24;3.40;;;1.90;;
35699;SDS011;21818;51.078;12.108;2022-12-17T04:30:08;4.03;;;2.30;;
35699;SDS011;21818;51.078;12.108;2022-12-17T04:32:52;6.03;;;3.50;;
35699;SDS011;21818;51.078;12.108;2022-12-17T04:35:37;4.32;;;2.40;;
35699;SDS011;21818;51.078;12.108;2022-12-17T04:38:20;4.82;;;2.20;;
35699;SDS011;21818;51.078;12.108;2022-12-17T04:41:05;8.23;;;4.28;;
35699;SDS011;21818;51.078;12.108;2022-12-17T04:43:49;4.68;;;2.47;;
35699;SDS011;21818;51.078;12.108;2022-12-17T04:46:33;6.03;;;3.17;;
35699;SDS011;21818;51.078;12.108;2022-12-17T04:49:17;4.43;;;2.03;;
35699;SDS011;21818;51.078;12.108;2022-12-17T04:52:01;4.18;;;2.58;;
35699;SDS011;21818;51.078;12.108;2022-12-17T04:54:45;5.47;;;3.28;;
35699;SDS011;21818;51.078;12.108;2022-12-17T04:57:29;5.63;;;2.92;;
35699;SDS011;21818;51.078;12.108;2022-12-17T05:00:13;3.83;;;2.35;;
35699;SDS011;21818;51.078;12.108;2022-12-17T05:03:08;6.97;;;3.20;;
35699;SDS011;21818;51.078;12.108;2022-12-17T05:05:54;4.85;;;2.47;;
35699;SDS011;21818;51.078;12.108;2022-12-17T05:08:38;7.13;;;4.05;;
35699;SDS011;21818;51.078;12.108;2022-12-17T05:11:23;6.88;;;3.42;;
35699;SDS011;21818;51.078;12.108;2022-12-17T05:14:07;7.18;;;3.70;;
35699;SDS011;21818;51.078;12.108;2022-12-17T05:16:51;3.65;;;1.83;;
35699;SDS011;21818;51.078;12.108;2022-12-17T05:19:36;4.47;;;2.72;;
35699;SDS011;21818;51.078;12.108;2022-12-17T05:22:20;4.78;;;2.50;;
35699;SDS011;21818;51.078;12.108;2022-12-17T05:25:05;5.13;;;2.30;;
35699;SDS011;21818;51.078;12.108;2022-12-17T05:27:50;4.20;;;1.95;;
35699;SDS011;21818;51.078;12.108;2022-12-17T05:30:34;2.70;;;1.65;;
35699;SDS011;21818;51.078;12.108;2022-12-17T05:33:19;6.60;;;2.05;;
35699;SDS011;21818;51.078;12.108;2022-12-17T05:36:03;2.97;;;1.67;;
35699;SDS011;21818;51.078;12.108;2022-12-17T05:38:47;3.70;;;2.08;;
35699;SDS011;21818;51.078;12.108;2022-12-17T05:41:32;3.88;;;1.95;;
35699;SDS011;21818;51.078;12.108;2022-12-17T05:44:16;4.32;;;2.33;;
35699;SDS011;21818;51.078;12.108;2022-12-17T05:47:00;6.07;;;3.15;;
35699;SDS011;21818;51.078;12.108;2022-12-17T05:49:44;5.50;;;3.00;;
35699;SDS011;21818;51.078;12.108;2022-12-17T05:52:29;5.55;;;3.33;;
35699;SDS011;21818;51.078;12.108;2022-12-17T05:55:13;5.03;;;2.92;;
35699;SDS011;21818;51.078;12.108;2022-12-17T05:58:01;6.60;;;3.13;;
35699;SDS011;21818;51.078;12.108;2022-12-17T06:00:53;6.47;;;3.65;;
35699;SDS011;21818;51.078;12.108;2022-12-17T06:03:42;4.78;;;2.63;;
35699;SDS011;21818;51.078;12.108;2022-12-17T06:06:26;5.28;;;3.20;;
35699;SDS011;21818;51.078;12.108;2022-12-17T06:09:11;7.78;;;3.45;;
35699;SDS011;21818;51.078;12.108;2022-12-17T06:11:55;6.82;;;3.67;;
35699;SDS011;21818;51.078;12.108;2022-12-17T06:14:39;6.50;;;3.65;;
35699;SDS011;21818;51.078;12.108;2022-12-17T06:17:23;7.63;;;3.90;;
35699;SDS011;21818;51.078;12.108;2022-12-17T06:20:07;7.30;;;2.50;;
35699;SDS011;21818;51.078;12.108;2022-12-17T06:22:58;9.77;;;3.97;;
35699;SDS011;21818;51.078;12.108;2022-12-17T06:25:44;4.95;;;3.00;;
35699;SDS011;21818;51.078;12.108;2022-12-17T06:28:28;6.13;;;3.35;;
35699;SDS011;21818;51.078;12.108;2022-12-17T06:31:12;4.50;;;2.47;;
35699;SDS011;21818;51.078;12.108;2022-12-17T06:33:56;5.45;;;3.00;;
35699;SDS011;21818;51.078;12.108;2022-12-17T06:36:40;9.70;;;3.63;;
35699;SDS011;21818;51.078;12.108;2022-12-17T06:39:24;7.50;;;3.53;;
35699;SDS011;21818;51.078;12.108;2022-12-17T06:42:08;7.35;;;3.95;;
35699;SDS011;21818;51.078;12.108;2022-12-17T06:44:52;6.38;;;3.35;;
35699;SDS011;21818;51.078;12.108;2022-12-17T06:47:36;3.67;;;1.85;;
35699;SDS011;21818;51.078;12.108;2022-12-17T06:50:20;4.50;;;2.40;;
35699;SDS011;21818;51.078;12.108;2022-12-17T06:53:04;6.78;;;4.07;;
35699;SDS011;21818;51.078;12.108;2022-12-17T06:55:49;9.95;;;5.50;;
35699;SDS011;21818;51.078;12.108;2022-12-17T06:58:34;11.25;;;4.20;;
35699;SDS011;21818;51.078;12.108;2022-12-17T07:01:19;10.07;;;4.50;;
35699;SDS011;21818;51.078;12.108;2022-12-17T07:04:03;8.77;;;4.60;;
35699;SDS011;21818;51.078;12.108;2022-12-17T07:06:47;15.25;;;5.03;;
35699;SDS011;21818;51.078;12.108;2022-12-17T07:09:32;10.98;;;4.85;;
35699;SDS011;21818;51.078;12.108;2022-12-17T07:12:16;11.13;;;4.45;;
35699;SDS011;21818;51.078;12.108;2022-12-17T07:15:00;10.35;;;4.28;;
35699;SDS011;21818;51.078;12.108;2022-12-17T07:17:54;9.70;;;4.35;;
35699;SDS011;21818;51.078;12.108;2022-12-17T07:20:39;9.43;;;4.20;;
35699;SDS011;21818;51.078;12.108;2022-12-17T07:23:23;7.25;;;4.05;;
35699;SDS011;21818;51.078;12.108;2022-12-17T07:26:07;10.85;;;4.30;;
35699;SDS011;21818;51.078;12.108;2022-12-17T07:28:51;9.90;;;3.60;;
35699;SDS011;21818;51.078;12.108;2022-12-17T07:31:35;9.15;;;4.15;;
35699;SDS011;21818;51.078;12.108;2022-12-17T07:34:19;8.65;;;4.40;;
35699;SDS011;21818;51.078;12.108;2022-12-17T07:37:04;11.68;;;3.60;;
35699;SDS011;21818;51.078;12.108;2022-12-17T07:39:48;9.43;;;3.83;;
35699;SDS011;21818;51.078;12.108;2022-12-17T07:42:32;8.68;;;3.80;;
35699;SDS011;21818;51.078;12.108;2022-12-17T07:45:16;7.47;;;3.60;;
35699;SDS011;21818;51.078;12.108;2022-12-17T07:48:00;7.82;;;3.20;;
35699;SDS011;21818;51.078;12.108;2022-12-17T07:50:47;8.95;;;3.67;;
35699;SDS011;21818;51.078;12.108;2022-12-17T07:53:34;7.22;;;3.10;;
35699;SDS011;21818;51.078;12.108;2022-12-17T07:56:18;4.28;;;2.50;;
35699;SDS011;21818;51.078;12.108;2022-12-17T07:59:02;4.15;;;2.38;;
35699;SDS011;21818;51.078;12.108;2022-12-17T08:01:47;6.53;;;3.50;;
35699;SDS011;21818;51.078;12.108;2022-12-17T08:04:31;8.93;;;4.65;;
35699;SDS011;21818;51.078;12.108;2022-12-17T08:07:16;4.57;;;2.17;;
35699;SDS011;21818;51.078;12.108;2022-12-17T08:10:01;7.22;;;3.40;;
35699;SDS011;21818;51.078;12.108;2022-12-17T08:12:56;9.95;;;4.15;;
35699;SDS011;21818;51.078;12.108;2022-12-17T08:15:48;7.65;;;3.80;;
35699;SDS011;21818;51.078;12.108;2022-12-17T08:18:34;8.88;;;4.25;;
35699;SDS011;21818;51.078;12.108;2022-12-17T08:21:18;9.20;;;4.25;;
35699;SDS011;21818;51.078;12.108;2022-12-17T08:24:02;9.13;;;4.00;;
35699;SDS011;21818;51.078;12.108;2022-12-17T08:26:47;8.43;;;4.32;;
35699;SDS011;21818;51.078;12.108;2022-12-17T08:29:31;7.53;;;4.10;;
35699;SDS011;21818;51.078;12.108;2022-12-17T08:32:15;8.00;;;4.53;;
35699;SDS011;21818;51.078;12.108;2022-12-17T08:35:00;10.45;;;4.00;;
35699;SDS011;21818;51.078;12.108;2022-12-17T08:37:44;10.30;;;3.83;;
35699;SDS011;21818;51.078;12.108;2022-12-17T08:40:28;6.72;;;3.28;;
35699;SDS011;21818;51.078;12.108;2022-12-17T08:43:12;7.30;;;3.63;;
35699;SDS011;21818;51.078;12.108;2022-12-17T08:45:56;4.38;;;2.70;;
35699;SDS011;21818;51.078;12.108;2022-12-17T08:48:40;5.10;;;2.35;;
35699;SDS011;21818;51.078;12.108;2022-12-17T08:51:24;7.13;;;2.92;;
35699;SDS011;21818;51.078;12.108;2022-12-17T08:54:08;4.30;;;2.53;;
35699;SDS011;21818;51.078;12.108;2022-12-17T08:56:53;5.57;;;2.88;;
35699;SDS011;21818;51.078;12.108;2022-12-17T08:59:37;5.35;;;2.78;;
35699;SDS011;21818;51.078;12.108;2022-12-17T09:02:22;5.00;;;2.00;;
35699;SDS011;21818;51.078;12.108;2022-12-17T09:05:07;4.85;;;2.33;;
35699;SDS011;21818;51.078;12.108;2022-12-17T09:08:01;8.50;;;4.45;;
35699;SDS011;21818;51.078;12.108;2022-12-17T09:10:49;8.48;;;3.45;;
35699;SDS011;21818;51.078;12.108;2022-12-17T09:13:34;3.78;;;2.20;;
35699;SDS011;21818;51.078;12.108;2022-12-17T09:16:18;5.15;;;3.00;;
35699;SDS011;21818;51.078;12.108;2022-12-17T09:19:02;6.10;;;2.90;;
35699;SDS011;21818;51.078;12.108;2022-12-17T09:21:47;7.25;;;3.05;;
35699;SDS011;21818;51.078;12.108;2022-12-17T09:24:31;6.72;;;3.20;;
35699;SDS011;21818;51.078;12.108;2022-12-17T09:27:15;6.10;;;2.85;;
35699;SDS011;21818;51.078;12.108;2022-12-17T09:29:59;5.50;;;2.90;;
35699;SDS011;21818;51.078;12.108;2022-12-17T09:32:43;7.00;;;3.30;;
35699;SDS011;21818;51.078;12.108;2022-12-17T09:35:27;3.85;;;2.05;;
35699;SDS011;21818;51.078;12.108;2022-12-17T09:38:11;5.32;;;2.10;;
35699;SDS011;21818;51.078;12.108;2022-12-17T09:40:57;4.90;;;2.03;;
35699;SDS011;21818;51.078;12.108;2022-12-17T09:43:56;8.95;;;3.45;;
35699;SDS011;21818;51.078;12.108;2022-12-17T09:46:51;6.78;;;3.40;;
35699;SDS011;21818;51.078;12.108;2022-12-17T09:49:43;6.05;;;3.10;;
35699;SDS011;21818;51.078;12.108;2022-12-17T09:52:28;7.50;;;3.53;;
35699;SDS011;21818;51.078;12.108;2022-12-17T09:55:33;4.95;;;2.58;;
35699;SDS011;21818;51.078;12.108;2022-12-17T09:58:24;6.32;;;2.60;;
35699;SDS011;21818;51.078;12.108;2022-12-17T10:01:18;5.00;;;2.13;;
35699;SDS011;21818;51.078;12.108;2022-12-17T10:04:04;5.78;;;3.47;;
35699;SDS011;21818;51.078;12.108;2022-12-17T10:06:53;5.28;;;2.60;;
35699;SDS011;21818;51.078;12.108;2022-12-17T10:09:37;8.98;;;3.58;;
35699;SDS011;21818;51.078;12.108;2022-12-17T10:12:21;6.65;;;3.10;;
35699;SDS011;21818;51.078;12.108;2022-12-17T10:15:06;7.85;;;3.47;;
35699;SDS011;21818;51.078;12.108;2022-12-17T10:17:50;5.18;;;2.70;;
35699;SDS011;21818;51.078;12.108;2022-12-17T10:21:08;5.65;;;2.90;;
35699;SDS011;21818;51.078;12.108;2022-12-17T10:23:48;5.60;;;2.88;;
35699;SDS011;21818;51.078;12.108;2022-12-17T10:26:32;4.75;;;2.35;;
35699;SDS011;21818;51.078;12.108;2022-12-17T10:29:21;4.75;;;2.58;;
35699;SDS011;21818;51.078;12.108;2022-12-17T10:32:25;4.13;;;2.25;;
35699;SDS011;21818;51.078;12.108;2022-12-17T10:38:36;7.55;;;2.80;;
35699;SDS011;21818;51.078;12.108;2022-12-17T10:41:27;7.50;;;3.53;;
35699;SDS011;21818;51.078;12.108;2022-12-17T10:44:25;4.03;;;2.13;;
35699;SDS011;21818;51.078;12.108;2022-12-17T10:47:17;5.72;;;2.35;;
35699;SDS011;21818;51.078;12.108;2022-12-17T10:50:16;3.92;;;2.08;;
35699;SDS011;21818;51.078;12.108;2022-12-17T10:53:03;8.00;;;3.30;;
35699;SDS011;21818;51.078;12.108;2022-12-17T10:55:57;5.88;;;2.70;;
35699;SDS011;21818;51.078;12.108;2022-12-17T10:58:46;6.60;;;3.90;;
35699;SDS011;21818;51.078;12.108;2022-12-17T11:01:32;5.07;;;2.38;;
35699;SDS011;21818;51.078;12.108;2022-12-17T11:04:21;3.80;;;1.98;;
35699;SDS011;21818;51.078;12.108;2022-12-17T11:07:06;6.30;;;2.75;;
35699;SDS011;21818;51.078;12.108;2022-12-17T11:10:28;7.50;;;3.33;;
35699;SDS011;21818;51.078;12.108;2022-12-17T11:17:00;7.07;;;3.05;;
35699;SDS011;21818;51.078;12.108;2022-12-17T11:19:31;6.57;;;3.17;;
35699;SDS011;21818;51.078;12.108;2022-12-17T11:28:32;6.93;;;3.78;;
35699;SDS011;21818;51.078;12.108;2022-12-17T11:31:30;7.00;;;3.47;;
35699;SDS011;21818;51.078;12.108;2022-12-17T11:34:45;7.20;;;3.17;;
35699;SDS011;21818;51.078;12.108;2022-12-17T11:38:20;7.07;;;3.72;;
35699;SDS011;21818;51.078;12.108;2022-12-17T11:41:15;8.00;;;3.88;;
35699;SDS011;21818;51.078;12.108;2022-12-17T11:44:12;6.75;;;3.70;;
35699;SDS011;21818;51.078;12.108;2022-12-17T11:47:15;6.65;;;3.25;;
35699;SDS011;21818;51.078;12.108;2022-12-17T11:53:05;7.28;;;3.42;;
35699;SDS011;21818;51.078;12.108;2022-12-17T11:59:14;7.82;;;3.88;;
35699;SDS011;21818;51.078;12.108;2022-12-17T12:11:48;6.07;;;2.85;;
35699;SDS011;21818;51.078;12.108;2022-12-17T12:15:22;4.80;;;2.78;;
35699;SDS011;21818;51.078;12.108;2022-12-17T12:17:59;3.85;;;2.03;;
35699;SDS011;21818;51.078;12.108;2022-12-17T12:24:40;6.82;;;2.50;;
35699;SDS011;21818;51.078;12.108;2022-12-17T12:30:20;8.82;;;3.92;;
35699;SDS011;21818;51.078;12.108;2022-12-17T12:33:19;7.55;;;4.28;;
35699;SDS011;21818;51.078;12.108;2022-12-17T12:36:05;7.95;;;3.30;;
35699;SDS011;21818;51.078;12.108;2022-12-17T12:39:04;7.13;;;3.67;;
35699;SDS011;21818;51.078;12.108;2022-12-17T12:42:01;4.78;;;2.17;;
35699;SDS011;21818;51.078;12.108;2022-12-17T12:48:52;7.30;;;3.72;;
35699;SDS011;21818;51.078;12.108;2022-12-17T12:51:34;6.20;;;3.20;;
35699;SDS011;21818;51.078;12.108;2022-12-17T13:00:36;6.47;;;3.40;;
35699;SDS011;21818;51.078;12.108;2022-12-17T13:03:24;5.45;;;2.72;;
35699;SDS011;21818;51.078;12.108;2022-12-17T13:06:09;7.03;;;3.33;;
35699;SDS011;21818;51.078;12.108;2022-12-17T13:08:36;3.05;;;1.92;;
35699;SDS011;21818;51.078;12.108;2022-12-17T13:11:26;3.22;;;1.73;;
35699;SDS011;21818;51.078;12.108;2022-12-17T13:13:53;2.88;;;1.67;;
35699;SDS011;21818;51.078;12.108;2022-12-17T13:16:39;2.75;;;1.58;;
35699;SDS011;21818;51.078;12.108;2022-12-17T13:21:55;4.03;;;2.50;;
35699;SDS011;21818;51.078;12.108;2022-12-17T13:24:42;7.78;;;3.25;;
35699;SDS011;21818;51.078;12.108;2022-12-17T13:41:17;8.68;;;4.35;;
35699;SDS011;21818;51.078;12.108;2022-12-17T13:43:45;7.38;;;2.95;;
35699;SDS011;21818;51.078;12.108;2022-12-17T13:46:21;7.13;;;4.30;;
35699;SDS011;21818;51.078;12.108;2022-12-17T13:48:56;6.88;;;4.00;;
35699;SDS011;21818;51.078;12.108;2022-12-17T13:51:28;5.15;;;2.63;;
35699;SDS011;21818;51.078;12.108;2022-12-17T13:53:59;4.90;;;2.95;;
35699;SDS011;21818;51.078;12.108;2022-12-17T13:58:55;3.97;;;2.30;;
35699;SDS011;21818;51.078;12.108;2022-12-17T14:01:22;4.43;;;2.78;;
35699;SDS011;21818;51.078;12.108;2022-12-17T14:03:54;3.90;;;2.00;;
35699;SDS011;21818;51.078;12.108;2022-12-17T14:06:22;4.60;;;2.50;;
35699;SDS011;21818;51.078;12.108;2022-12-17T14:08:51;4.78;;;1.80;;
35699;SDS011;21818;51.078;12.108;2022-12-17T14:11:19;4.28;;;2.15;;
35699;SDS011;21818;51.078;12.108;2022-12-17T14:14:07;11.82;;;3.60;;
35699;SDS011;21818;51.078;12.108;2022-12-17T14:16:48;4.88;;;2.97;;
35699;SDS011;21818;51.078;12.108;2022-12-17T14:19:14;4.43;;;2.88;;
35699;SDS011;21818;51.078;12.108;2022-12-17T14:21:39;3.80;;;3.03;;
35699;SDS011;21818;51.078;12.108;2022-12-17T14:24:05;4.00;;;2.10;;
35699;SDS011;21818;51.078;12.108;2022-12-17T14:26:34;5.50;;;2.13;;
35699;SDS011;21818;51.078;12.108;2022-12-17T14:29:11;2.15;;;1.60;;
35699;SDS011;21818;51.078;12.108;2022-12-17T14:31:38;3.42;;;1.73;;
35699;SDS011;21818;51.078;12.108;2022-12-17T14:34:04;3.42;;;1.90;;
35699;SDS011;21818;51.078;12.108;2022-12-17T14:36:32;3.42;;;1.52;;
35699;SDS011;21818;51.078;12.108;2022-12-17T14:39:01;3.42;;;1.83;;
35699;SDS011;21818;51.078;12.108;2022-12-17T14:41:36;4.82;;;2.13;;
35699;SDS011;21818;51.078;12.108;2022-12-17T14:44:23;3.75;;;2.15;;
35699;SDS011;21818;51.078;12.108;2022-12-17T14:46:52;4.15;;;2.15;;
35699;SDS011;21818;51.078;12.108;2022-12-17T14:49:34;6.30;;;3.60;;
35699;SDS011;21818;51.078;12.108;2022-12-17T14:52:10;5.93;;;3.38;;
35699;SDS011;21818;51.078;12.108;2022-12-17T14:54:43;4.45;;;2.20;;
35699;SDS011;21818;51.078;12.108;2022-12-17T14:57:18;4.57;;;2.88;;
35699;SDS011;21818;51.078;12.108;2022-12-17T14:59:45;3.80;;;2.50;;
35699;SDS011;21818;51.078;12.108;2022-12-17T15:04:43;3.80;;;2.60;;
35699;SDS011;21818;51.078;12.108;2022-12-17T15:07:09;4.28;;;2.00;;
35699;SDS011;21818;51.078;12.108;2022-12-17T15:09:38;4.30;;;2.17;;
35699;SDS011;21818;51.078;12.108;2022-12-17T15:12:05;3.85;;;2.00;;
35699;SDS011;21818;51.078;12.108;2022-12-17T15:14:32;3.38;;;2.03;;
35699;SDS011;21818;51.078;12.108;2022-12-17T15:16:57;3.20;;;1.70;;
35699;SDS011;21818;51.078;12.108;2022-12-17T15:19:25;3.42;;;1.85;;
35699;SDS011;21818;51.078;12.108;2022-12-17T15:21:50;3.22;;;1.85;;
35699;SDS011;21818;51.078;12.108;2022-12-17T15:24:17;3.17;;;1.70;;
35699;SDS011;21818;51.078;12.108;2022-12-17T15:26:45;3.47;;;1.98;;
35699;SDS011;21818;51.078;12.108;2022-12-17T15:29:11;2.53;;;1.60;;
35699;SDS011;21818;51.078;12.108;2022-12-17T15:31:37;2.78;;;1.73;;
35699;SDS011;21818;51.078;12.108;2022-12-17T15:34:03;3.75;;;1.65;;
35699;SDS011;21818;51.078;12.108;2022-12-17T15:36:29;2.88;;;1.67;;
35699;SDS011;21818;51.078;12.108;2022-12-17T15:38:58;4.88;;;1.77;;
35699;SDS011;21818;51.078;12.108;2022-12-17T15:41:24;3.80;;;1.92;;
35699;SDS011;21818;51.078;12.108;2022-12-17T15:44:08;4.03;;;1.75;;
35699;SDS011;21818;51.078;12.108;2022-12-17T15:46:34;3.20;;;1.67;;
35699;SDS011;21818;51.078;12.108;2022-12-17T15:49:00;3.00;;;2.00;;
35699;SDS011;21818;51.078;12.108;2022-12-17T15:51:26;2.90;;;1.67;;
35699;SDS011;21818;51.078;12.108;2022-12-17T15:53:51;3.28;;;2.13;;
35699;SDS011;21818;51.078;12.108;2022-12-17T15:56:18;3.63;;;2.20;;
35699;SDS011;21818;51.078;12.108;2022-12-17T16:01:14;2.65;;;1.70;;
35699;SDS011;21818;51.078;12.108;2022-12-17T16:03:40;2.85;;;1.85;;
35699;SDS011;21818;51.078;12.108;2022-12-17T16:06:06;3.97;;;1.80;;
35699;SDS011;21818;51.078;12.108;2022-12-17T16:08:31;3.33;;;1.83;;
35699;SDS011;21818;51.078;12.108;2022-12-17T16:10:57;3.80;;;2.10;;
35699;SDS011;21818;51.078;12.108;2022-12-17T16:13:22;2.97;;;1.50;;
35699;SDS011;21818;51.078;12.108;2022-12-17T16:15:55;4.22;;;2.10;;
35699;SDS011;21818;51.078;12.108;2022-12-17T16:18:24;3.55;;;1.60;;
35699;SDS011;21818;51.078;12.108;2022-12-17T16:20:50;3.03;;;1.67;;
35699;SDS011;21818;51.078;12.108;2022-12-17T16:23:16;2.92;;;1.70;;
35699;SDS011;21818;51.078;12.108;2022-12-17T16:25:41;3.97;;;1.52;;
35699;SDS011;21818;51.078;12.108;2022-12-17T16:28:07;3.45;;;1.75;;
35699;SDS011;21818;51.078;12.108;2022-12-17T16:30:33;2.95;;;1.58;;
35699;SDS011;21818;51.078;12.108;2022-12-17T16:32:58;5.22;;;1.63;;
35699;SDS011;21818;51.078;12.108;2022-12-17T16:35:24;2.80;;;1.60;;
35699;SDS011;21818;51.078;12.108;2022-12-17T16:37:52;3.28;;;1.80;;
35699;SDS011;21818;51.078;12.108;2022-12-17T16:40:18;3.92;;;2.13;;
35699;SDS011;21818;51.078;12.108;2022-12-17T16:42:44;4.20;;;2.10;;
35699;SDS011;21818;51.078;12.108;2022-12-17T16:45:10;3.35;;;1.75;;
35699;SDS011;21818;51.078;12.108;2022-12-17T16:47:35;2.53;;;1.40;;
35699;SDS011;21818;51.078;12.108;2022-12-17T16:50:01;2.97;;;1.70;;
35699;SDS011;21818;51.078;12.108;2022-12-17T16:52:27;2.90;;;1.85;;
35699;SDS011;21818;51.078;12.108;2022-12-17T16:54:53;2.08;;;1.42;;
35699;SDS011;21818;51.078;12.108;2022-12-17T16:57:18;2.60;;;1.70;;
35699;SDS011;21818;51.078;12.108;2022-12-17T16:59:44;2.55;;;1.58;;
35699;SDS011;21818;51.078;12.108;2022-12-17T17:02:11;2.35;;;1.55;;
35699;SDS011;21818;51.078;12.108;2022-12-17T17:04:39;4.50;;;2.88;;
35699;SDS011;21818;51.078;12.108;2022-12-17T17:07:05;6.90;;;4.07;;
35699;SDS011;21818;51.078;12.108;2022-12-17T17:09:31;6.32;;;3.50;;
35699;SDS011;21818;51.078;12.108;2022-12-17T17:11:57;8.05;;;4.00;;
35699;SDS011;21818;51.078;12.108;2022-12-17T17:14:23;8.73;;;4.22;;
35699;SDS011;21818;51.078;12.108;2022-12-17T17:16:49;5.88;;;2.20;;